sensor_id;sensor_type;location;lat;lon;timestamp;pressure;altitude;pressure_sealevel;temperature;humidity
20955;BME280;10636;19.390;-99.256;2023-05-14T00:01:49;77558.16;;;25.18;37.69
20955;BME280;10636;19.390;-99.256;2023-05-14T00:04:18;77575.28;;;25.30;37.55
20955;BME280;10636;19.390;-99.256;2023-05-14T00:06:46;77579.97;;;25.30;37.45
20955;BME280;10636;19.390;-99.256;2023-05-14T00:09:16;77591.41;;;25.30;37.19
20955;BME280;10636;19.390;-99.256;2023-05-14T00:11:45;77600.84;;;25.32;37.55
20955;BME280;10636;19.390;-99.256;2023-05-14T00:14:13;77610.19;;;25.30;37.30
20955;BME280;10636;19.390;-99.256;2023-05-14T00:16:42;77619.56;;;25.29;37.54
20955;BME280;10636;19.390;-99.256;2023-05-14T00:19:10;77639.72;;;25.30;37.21
20955;BME280;10636;19.390;-99.256;2023-05-14T00:21:38;77649.06;;;25.29;37.50
20955;BME280;10636;19.390;-99.256;2023-05-14T00:24:07;77640.91;;;25.25;37.48
20955;BME280;10636;19.390;-99.256;2023-05-14T00:26:37;77642.06;;;25.20;37.16
20955;BME280;10636;19.390;-99.256;2023-05-14T00:29:06;77666.16;;;25.18;37.34
20955;BME280;10636;19.390;-99.256;2023-05-14T00:31:34;77666.03;;;25.14;37.40
20955;BME280;10636;19.390;-99.256;2023-05-14T00:34:03;77669.97;;;25.11;37.36
20955;BME280;10636;19.390;-99.256;2023-05-14T00:36:31;77667.16;;;25.07;37.37
20955;BME280;10636;19.390;-99.256;2023-05-14T00:39:00;77670.44;;;25.06;37.64
20955;BME280;10636;19.390;-99.256;2023-05-14T00:41:29;77668.25;;;25.00;37.59
20955;BME280;10636;19.390;-99.256;2023-05-14T00:44:00;77681.59;;;24.98;37.26
20955;BME280;10636;19.390;-99.256;2023-05-14T00:46:28;77681.44;;;24.94;37.17
20955;BME280;10636;19.390;-99.256;2023-05-14T00:48:57;77686.69;;;24.90;37.52
20955;BME280;10636;19.390;-99.256;2023-05-14T00:51:26;77699.34;;;24.87;37.44
20955;BME280;10636;19.390;-99.256;2023-05-14T00:53:54;77698.59;;;24.85;37.32
20955;BME280;10636;19.390;-99.256;2023-05-14T00:56:23;77707.19;;;24.81;36.87
20955;BME280;10636;19.390;-99.256;2023-05-14T00:58:52;77721.22;;;24.80;37.36
20955;BME280;10636;19.390;-99.256;2023-05-14T01:01:22;77734.41;;;24.73;37.28
20955;BME280;10636;19.390;-99.256;2023-05-14T01:03:53;77749.13;;;24.72;37.29
20955;BME280;10636;19.390;-99.256;2023-05-14T01:06:27;77753.78;;;24.72;37.20
20955;BME280;10636;19.390;-99.256;2023-05-14T01:09:04;77759.72;;;24.68;36.78
20955;BME280;10636;19.390;-99.256;2023-05-14T01:11:41;77762.41;;;24.68;37.38
20955;BME280;10636;19.390;-99.256;2023-05-14T01:14:18;77729.50;;;24.48;37.29
20955;BME280;10636;19.390;-99.256;2023-05-14T01:16:51;77754.34;;;24.68;37.04
20955;BME280;10636;19.390;-99.256;2023-05-14T01:19:30;77769.19;;;24.71;37.35
20955;BME280;10636;19.390;-99.256;2023-05-14T01:22:02;77785.38;;;24.73;37.14
20955;BME280;10636;19.390;-99.256;2023-05-14T01:24:30;77790.75;;;24.73;36.85
20955;BME280;10636;19.390;-99.256;2023-05-14T01:27:02;77785.44;;;24.75;37.15
20955;BME280;10636;19.390;-99.256;2023-05-14T01:29:37;77781.28;;;24.72;36.99
20955;BME280;10636;19.390;-99.256;2023-05-14T01:32:08;77805.59;;;24.76;36.86
20955;BME280;10636;19.390;-99.256;2023-05-14T01:34:39;77818.94;;;24.74;36.83
20955;BME280;10636;19.390;-99.256;2023-05-14T01:37:11;77832.34;;;24.74;36.77
20955;BME280;10636;19.390;-99.256;2023-05-14T01:39:41;77834.34;;;24.74;37.37
20955;BME280;10636;19.390;-99.256;2023-05-14T01:42:09;77843.75;;;24.75;36.95
20955;BME280;10636;19.390;-99.256;2023-05-14T01:44:40;77849.81;;;24.75;36.93
20955;BME280;10636;19.390;-99.256;2023-05-14T01:47:09;77861.91;;;24.76;36.97
20955;BME280;10636;19.390;-99.256;2023-05-14T01:49:37;77874.00;;;24.77;37.15
20955;BME280;10636;19.390;-99.256;2023-05-14T01:52:06;77870.03;;;24.78;37.35
20955;BME280;10636;19.390;-99.256;2023-05-14T01:54:37;77870.16;;;24.83;37.06
20955;BME280;10636;19.390;-99.256;2023-05-14T01:57:05;77883.50;;;24.81;37.19
20955;BME280;10636;19.390;-99.256;2023-05-14T01:59:33;77910.28;;;24.78;37.30
20955;BME280;10636;19.390;-99.256;2023-05-14T02:02:02;77933.69;;;24.78;38.07
20955;BME280;10636;19.390;-99.256;2023-05-14T02:04:30;77949.09;;;24.77;37.81
20955;BME280;10636;19.390;-99.256;2023-05-14T02:06:59;77941.00;;;24.75;38.12
20955;BME280;10636;19.390;-99.256;2023-05-14T02:09:27;77943.81;;;24.80;38.06
20955;BME280;10636;19.390;-99.256;2023-05-14T02:11:57;77954.47;;;24.77;37.75
20955;BME280;10636;19.390;-99.256;2023-05-14T02:14:26;77955.16;;;24.78;38.06
20955;BME280;10636;19.390;-99.256;2023-05-14T02:16:54;77957.16;;;24.77;37.95
20955;BME280;10636;19.390;-99.256;2023-05-14T02:19:23;77958.44;;;24.76;37.80
20955;BME280;10636;19.390;-99.256;2023-05-14T02:21:54;77962.44;;;24.75;38.03
20955;BME280;10636;19.390;-99.256;2023-05-14T02:24:22;77962.97;;;24.72;38.33
20955;BME280;10636;19.390;-99.256;2023-05-14T02:26:51;77970.31;;;24.71;38.49
20955;BME280;10636;19.390;-99.256;2023-05-14T02:29:21;77977.69;;;24.71;38.68
20955;BME280;10636;19.390;-99.256;2023-05-14T02:31:49;77985.03;;;24.70;38.30
20955;BME280;10636;19.390;-99.256;2023-05-14T02:34:18;77982.38;;;24.70;38.71
20955;BME280;10636;19.390;-99.256;2023-05-14T02:36:46;77978.22;;;24.67;38.61
20955;BME280;10636;19.390;-99.256;2023-05-14T02:39:16;77988.25;;;24.67;38.42
20955;BME280;10636;19.390;-99.256;2023-05-14T02:41:45;77986.25;;;24.67;38.32
20955;BME280;10636;19.390;-99.256;2023-05-14T02:44:31;77982.19;;;24.66;38.47
20955;BME280;10636;19.390;-99.256;2023-05-14T02:47:15;77970.09;;;24.65;38.29
20955;BME280;10636;19.390;-99.256;2023-05-14T02:49:44;77968.72;;;24.64;38.74
20955;BME280;10636;19.390;-99.256;2023-05-14T02:52:12;77961.72;;;24.57;38.58
20955;BME280;10636;19.390;-99.256;2023-05-14T02:54:45;77958.97;;;24.55;38.58
20955;BME280;10636;19.390;-99.256;2023-05-14T02:57:13;77957.59;;;24.54;38.73
20955;BME280;10636;19.390;-99.256;2023-05-14T03:00:00;77979.28;;;24.60;38.17
20955;BME280;10636;19.390;-99.256;2023-05-14T03:02:56;77964.06;;;24.65;38.79
20955;BME280;10636;19.390;-99.256;2023-05-14T03:05:27;77958.69;;;24.65;38.95
20955;BME280;10636;19.390;-99.256;2023-05-14T03:07:58;77947.09;;;24.60;38.45
20955;BME280;10636;19.390;-99.256;2023-05-14T03:10:28;77958.69;;;24.65;38.62
20955;BME280;10636;19.390;-99.256;2023-05-14T03:13:03;77965.34;;;24.64;38.64
20955;BME280;10636;19.390;-99.256;2023-05-14T03:15:33;77980.75;;;24.63;38.91
20955;BME280;10636;19.390;-99.256;2023-05-14T03:18:02;77975.31;;;24.61;38.78
20955;BME280;10636;19.390;-99.256;2023-05-14T03:20:48;77971.19;;;24.58;38.87
20955;BME280;10636;19.390;-99.256;2023-05-14T03:23:23;77972.56;;;24.59;38.92
20955;BME280;10636;19.390;-99.256;2023-05-14T03:25:57;77979.28;;;24.60;39.27
20955;BME280;10636;19.390;-99.256;2023-05-14T03:28:28;77969.94;;;24.61;38.68
20955;BME280;10636;19.390;-99.256;2023-05-14T03:30:59;77979.28;;;24.60;39.03
20955;BME280;10636;19.390;-99.256;2023-05-14T03:33:27;77976.38;;;24.54;39.26
20955;BME280;10636;19.390;-99.256;2023-05-14T03:35:56;77982.03;;;24.62;39.02
20955;BME280;10636;19.390;-99.256;2023-05-14T03:38:25;77990.09;;;24.62;39.02
20955;BME280;10636;19.390;-99.256;2023-05-14T03:40:54;77994.75;;;24.62;39.39
20955;BME280;10636;19.390;-99.256;2023-05-14T03:43:22;77996.75;;;24.61;38.83
20955;BME280;10636;19.390;-99.256;2023-05-14T03:45:53;77997.97;;;24.58;38.93
20955;BME280;10636;19.390;-99.256;2023-05-14T03:48:23;77998.06;;;24.60;39.28
20955;BME280;10636;19.390;-99.256;2023-05-14T03:50:53;78009.41;;;24.59;39.06
20955;BME280;10636;19.390;-99.256;2023-05-14T03:53:26;78021.50;;;24.60;38.81
20955;BME280;10636;19.390;-99.256;2023-05-14T03:55:55;78023.41;;;24.57;38.63
20955;BME280;10636;19.390;-99.256;2023-05-14T03:58:23;78013.84;;;24.52;39.21
20955;BME280;10636;19.390;-99.256;2023-05-14T04:00:54;78027.38;;;24.56;39.15
20955;BME280;10636;19.390;-99.256;2023-05-14T04:03:27;78028.69;;;24.55;39.18
20955;BME280;10636;19.390;-99.256;2023-05-14T04:05:55;78034.66;;;24.54;38.76
20955;BME280;10636;19.390;-99.256;2023-05-14T04:08:24;78034.06;;;24.55;39.00
20955;BME280;10636;19.390;-99.256;2023-05-14T04:10:52;78038.09;;;24.56;38.79
20955;BME280;10636;19.390;-99.256;2023-05-14T04:13:22;78044.09;;;24.55;39.02
20955;BME280;10636;19.390;-99.256;2023-05-14T04:15:51;78046.09;;;24.54;39.22
20955;BME280;10636;19.390;-99.256;2023-05-14T04:18:19;78043.41;;;24.54;39.31
20955;BME280;10636;19.390;-99.256;2023-05-14T04:20:49;78047.97;;;24.51;38.77
20955;BME280;10636;19.390;-99.256;2023-05-14T04:23:18;78051.91;;;24.48;38.89
20955;BME280;10636;19.390;-99.256;2023-05-14T04:25:46;78040.56;;;24.34;38.97
20955;BME280;10636;19.390;-99.256;2023-05-14T04:28:15;78065.81;;;24.45;38.78
20955;BME280;10636;19.390;-99.256;2023-05-14T04:30:43;78071.19;;;24.45;39.49
20955;BME280;10636;19.390;-99.256;2023-05-14T04:33:12;78085.88;;;24.44;38.96
20955;BME280;10636;19.390;-99.256;2023-05-14T04:35:41;78077.78;;;24.42;38.78
20955;BME280;10636;19.390;-99.256;2023-05-14T04:38:11;78081.72;;;24.41;39.17
20955;BME280;10636;19.390;-99.256;2023-05-14T04:40:39;78088.50;;;24.42;39.30
20955;BME280;10636;19.390;-99.256;2023-05-14T04:43:08;78093.13;;;24.41;39.21
20955;BME280;10636;19.390;-99.256;2023-05-14T04:45:37;78090.38;;;24.39;39.49
20955;BME280;10636;19.390;-99.256;2023-05-14T04:48:06;78101.09;;;24.39;39.38
20955;BME280;10636;19.390;-99.256;2023-05-14T04:50:34;78101.78;;;24.40;39.43
20955;BME280;10636;19.390;-99.256;2023-05-14T04:53:06;78100.41;;;24.39;39.24
20955;BME280;10636;19.390;-99.256;2023-05-14T04:55:38;78107.69;;;24.36;39.41
20955;BME280;10636;19.390;-99.256;2023-05-14T04:58:07;78108.38;;;24.37;38.89
20955;BME280;10636;19.390;-99.256;2023-05-14T05:00:35;78103.72;;;24.37;38.95
20955;BME280;10636;19.390;-99.256;2023-05-14T05:03:04;78089.63;;;24.37;39.15
20955;BME280;10636;19.390;-99.256;2023-05-14T05:05:32;78094.84;;;24.35;39.18
20955;BME280;10636;19.390;-99.256;2023-05-14T05:08:00;78085.53;;;24.36;39.59
20955;BME280;10636;19.390;-99.256;2023-05-14T05:10:29;78082.84;;;24.36;39.03
20955;BME280;10636;19.390;-99.256;2023-05-14T05:12:59;78078.09;;;24.34;39.23
20955;BME280;10636;19.390;-99.256;2023-05-14T05:15:28;78066.59;;;24.32;39.63
20955;BME280;10636;19.390;-99.256;2023-05-14T05:17:56;78063.81;;;24.30;39.51
20955;BME280;10636;19.390;-99.256;2023-05-14T05:20:25;78058.56;;;24.32;39.10
20955;BME280;10636;19.390;-99.256;2023-05-14T05:22:53;78056.47;;;24.30;39.20
20955;BME280;10636;19.390;-99.256;2023-05-14T05:25:22;78055.78;;;24.30;39.22
20955;BME280;10636;19.390;-99.256;2023-05-14T05:27:50;78050.41;;;24.30;39.44
20955;BME280;10636;19.390;-99.256;2023-05-14T05:30:21;78053.09;;;24.30;39.45
20955;BME280;10636;19.390;-99.256;2023-05-14T05:32:49;78055.72;;;24.27;39.42
20955;BME280;10636;19.390;-99.256;2023-05-14T05:35:18;78056.41;;;24.28;38.94
20955;BME280;10636;19.390;-99.256;2023-05-14T05:37:46;78052.34;;;24.27;39.20
20955;BME280;10636;19.390;-99.256;2023-05-14T05:40:15;78052.34;;;24.27;39.11
20955;BME280;10636;19.390;-99.256;2023-05-14T05:42:43;78054.41;;;24.29;39.47
20955;BME280;10636;19.390;-99.256;2023-05-14T05:45:12;78054.34;;;24.26;39.18
20955;BME280;10636;19.390;-99.256;2023-05-14T05:47:42;78055.03;;;24.27;39.02
20955;BME280;10636;19.390;-99.256;2023-05-14T05:50:10;78061.69;;;24.26;39.65
20955;BME280;10636;19.390;-99.256;2023-05-14T05:52:39;78060.28;;;24.25;39.77
20955;BME280;10636;19.390;-99.256;2023-05-14T05:55:08;78055.53;;;24.23;39.57
20955;BME280;10636;19.390;-99.256;2023-05-14T05:57:37;78062.19;;;24.22;39.54
20955;BME280;10636;19.390;-99.256;2023-05-14T06:00:06;78056.84;;;24.22;39.58
20955;BME280;10636;19.390;-99.256;2023-05-14T06:02:41;78056.84;;;24.22;39.57
20955;BME280;10636;19.390;-99.256;2023-05-14T06:05:10;78046.13;;;24.22;39.80
20955;BME280;10636;19.390;-99.256;2023-05-14T06:07:38;78054.09;;;24.20;39.84
20955;BME280;10636;19.390;-99.256;2023-05-14T06:10:07;78039.38;;;24.21;39.38
20955;BME280;10636;19.390;-99.256;2023-05-14T06:12:36;78038.00;;;24.20;39.69
20955;BME280;10636;19.390;-99.256;2023-05-14T06:15:05;78040.59;;;24.18;39.14
20955;BME280;10636;19.390;-99.256;2023-05-14T06:17:34;78045.34;;;24.20;39.75
20955;BME280;10636;19.390;-99.256;2023-05-14T06:20:05;78047.31;;;24.19;39.19
20955;BME280;10636;19.390;-99.256;2023-05-14T06:22:34;78037.91;;;24.18;39.69
20955;BME280;10636;19.390;-99.256;2023-05-14T06:25:03;78032.47;;;24.16;39.65
20955;BME280;10636;19.390;-99.256;2023-05-14T06:27:32;78032.47;;;24.16;39.31
20955;BME280;10636;19.390;-99.256;2023-05-14T06:30:00;78031.09;;;24.15;39.62
20955;BME280;10636;19.390;-99.256;2023-05-14T06:32:29;78045.09;;;24.14;39.39
20955;BME280;10636;19.390;-99.256;2023-05-14T06:34:57;78007.19;;;23.88;39.45
20955;BME280;10636;19.390;-99.256;2023-05-14T06:37:27;78041.81;;;24.15;39.50
20955;BME280;10636;19.390;-99.256;2023-05-14T06:39:56;78045.78;;;24.14;39.70
20955;BME280;10636;19.390;-99.256;2023-05-14T06:42:24;78042.31;;;24.12;39.83
20955;BME280;10636;19.390;-99.256;2023-05-14T06:44:53;78037.66;;;24.12;40.00
20955;BME280;10636;19.390;-99.256;2023-05-14T06:47:21;78032.91;;;24.11;39.90
20955;BME280;10636;19.390;-99.256;2023-05-14T06:49:50;78026.88;;;24.10;39.84
20955;BME280;10636;19.390;-99.256;2023-05-14T06:52:18;78026.09;;;24.08;39.95
20955;BME280;10636;19.390;-99.256;2023-05-14T06:54:48;78015.38;;;24.08;39.82
20955;BME280;10636;19.390;-99.256;2023-05-14T06:57:17;78014.75;;;24.09;39.33
20955;BME280;10636;19.390;-99.256;2023-05-14T06:59:45;78006.38;;;24.01;39.73
20955;BME280;10636;19.390;-99.256;2023-05-14T07:02:14;78017.44;;;24.09;39.58
20955;BME280;10636;19.390;-99.256;2023-05-14T07:04:42;78021.41;;;24.08;39.87
20955;BME280;10636;19.390;-99.256;2023-05-14T07:07:11;77979.22;;;23.75;40.11
20955;BME280;10636;19.390;-99.256;2023-05-14T07:09:40;78020.03;;;24.07;39.93
20955;BME280;10636;19.390;-99.256;2023-05-14T07:12:11;78017.34;;;24.07;39.85
20955;BME280;10636;19.390;-99.256;2023-05-14T07:14:39;78013.31;;;24.06;39.87
20955;BME280;10636;19.390;-99.256;2023-05-14T07:17:08;78019.97;;;24.05;40.16
20955;BME280;10636;19.390;-99.256;2023-05-14T07:19:36;78018.56;;;24.04;39.91
20955;BME280;10636;19.390;-99.256;2023-05-14T07:22:04;78002.59;;;24.06;39.48
20955;BME280;10636;19.390;-99.256;2023-05-14T07:24:33;77997.84;;;24.05;39.60
20955;BME280;10636;19.390;-99.256;2023-05-14T07:27:01;77987.72;;;24.03;40.18
20955;BME280;10636;19.390;-99.256;2023-05-14T07:29:32;77985.03;;;24.03;40.22
20955;BME280;10636;19.390;-99.256;2023-05-14T07:32:00;77985.66;;;24.02;40.03
20955;BME280;10636;19.390;-99.256;2023-05-14T07:34:29;77985.03;;;24.03;39.61
20955;BME280;10636;19.390;-99.256;2023-05-14T07:36:57;77978.31;;;24.02;39.88
20955;BME280;10636;19.390;-99.256;2023-05-14T07:39:25;77977.63;;;24.02;39.56
20955;BME280;10636;19.390;-99.256;2023-05-14T07:41:54;77974.84;;;23.99;39.52
20955;BME280;10636;19.390;-99.256;2023-05-14T07:44:22;77966.09;;;23.99;40.32
20955;BME280;10636;19.390;-99.256;2023-05-14T07:46:52;77962.16;;;24.00;39.50
20955;BME280;10636;19.390;-99.256;2023-05-14T07:49:21;77959.38;;;23.98;40.06
20955;BME280;10636;19.390;-99.256;2023-05-14T07:51:49;77962.06;;;23.98;40.17
20955;BME280;10636;19.390;-99.256;2023-05-14T07:54:18;77970.09;;;23.98;39.51
20955;BME280;10636;19.390;-99.256;2023-05-14T07:56:46;77965.34;;;23.96;40.21
20955;BME280;10636;19.390;-99.256;2023-05-14T07:59:15;77964.59;;;23.94;40.28
20955;BME280;10636;19.390;-99.256;2023-05-14T08:01:43;77931.63;;;23.73;39.59
20955;BME280;10636;19.390;-99.256;2023-05-14T08:04:13;77959.22;;;23.94;39.71
20955;BME280;10636;19.390;-99.256;2023-05-14T08:06:43;77965.88;;;23.93;39.95
20955;BME280;10636;19.390;-99.256;2023-05-14T08:09:11;77969.84;;;23.92;40.48
20955;BME280;10636;19.390;-99.256;2023-05-14T08:11:40;77952.50;;;23.77;39.71
20955;BME280;10636;19.390;-99.256;2023-05-14T08:14:08;77977.81;;;23.90;40.18
20955;BME280;10636;19.390;-99.256;2023-05-14T08:16:37;77976.44;;;23.89;39.98
20955;BME280;10636;19.390;-99.256;2023-05-14T08:19:05;77980.38;;;23.88;39.88
20955;BME280;10636;19.390;-99.256;2023-05-14T08:21:35;77987.06;;;23.87;40.40
20955;BME280;10636;19.390;-99.256;2023-05-14T08:24:04;77989.13;;;23.88;39.79
20955;BME280;10636;19.390;-99.256;2023-05-14T08:26:33;77985.06;;;23.87;39.70
20955;BME280;10636;19.390;-99.256;2023-05-14T08:29:04;77977.72;;;23.88;40.03
20955;BME280;10636;19.390;-99.256;2023-05-14T08:31:36;77976.34;;;23.87;40.32
20955;BME280;10636;19.390;-99.256;2023-05-14T08:34:05;77970.97;;;23.87;40.18
20955;BME280;10636;19.390;-99.256;2023-05-14T08:36:35;77961.50;;;23.84;40.04
20955;BME280;10636;19.390;-99.256;2023-05-14T08:39:04;77947.38;;;23.83;39.60
20955;BME280;10636;19.390;-99.256;2023-05-14T08:41:33;77948.09;;;23.84;39.79
20955;BME280;10636;19.390;-99.256;2023-05-14T08:44:06;77944.03;;;23.83;39.40
20955;BME280;10636;19.390;-99.256;2023-05-14T08:46:53;77941.19;;;23.79;39.62
20955;BME280;10636;19.390;-99.256;2023-05-14T08:49:32;77931.63;;;23.73;40.09
20955;BME280;10636;19.390;-99.256;2023-05-14T08:52:08;77942.66;;;23.82;39.56
20955;BME280;10636;19.390;-99.256;2023-05-14T08:54:38;77916.59;;;23.66;39.09
20955;BME280;10636;19.390;-99.256;2023-05-14T08:57:08;77934.53;;;23.80;39.97
20955;BME280;10636;19.390;-99.256;2023-05-14T08:59:37;77927.81;;;23.79;39.47
20955;BME280;10636;19.390;-99.256;2023-05-14T09:02:09;77925.56;;;23.73;39.64
20955;BME280;10636;19.390;-99.256;2023-05-14T09:04:41;77939.91;;;23.80;39.04
20955;BME280;10636;19.390;-99.256;2023-05-14T09:07:11;77931.06;;;23.77;39.98
20955;BME280;10636;19.390;-99.256;2023-05-14T09:09:46;77929.81;;;23.78;39.13
20955;BME280;10636;19.390;-99.256;2023-05-14T09:12:19;77929.09;;;23.78;39.11
20955;BME280;10636;19.390;-99.256;2023-05-14T09:14:48;77934.44;;;23.78;39.11
20955;BME280;10636;19.390;-99.256;2023-05-14T09:17:25;77934.38;;;23.76;39.16
20955;BME280;10636;19.390;-99.256;2023-05-14T09:19:54;77935.75;;;23.77;39.17
20955;BME280;10636;19.390;-99.256;2023-05-14T09:22:24;77927.63;;;23.74;39.11
20955;BME280;10636;19.390;-99.256;2023-05-14T09:25:05;77943.72;;;23.74;39.04
20955;BME280;10636;19.390;-99.256;2023-05-14T09:27:34;77942.34;;;23.73;39.18
20955;BME280;10636;19.390;-99.256;2023-05-14T09:30:08;77951.63;;;23.72;39.58
20955;BME280;10636;19.390;-99.256;2023-05-14T09:32:38;77949.69;;;23.73;39.42
20955;BME280;10636;19.390;-99.256;2023-05-14T09:35:10;77959.78;;;23.74;39.82
20955;BME280;10636;19.390;-99.256;2023-05-14T09:37:43;77960.38;;;23.73;39.62
20955;BME280;10636;19.390;-99.256;2023-05-14T09:40:12;77950.25;;;23.71;39.23
20955;BME280;10636;19.390;-99.256;2023-05-14T09:42:41;77955.63;;;23.71;38.99
20955;BME280;10636;19.390;-99.256;2023-05-14T09:45:10;77952.19;;;23.69;39.89
20955;BME280;10636;19.390;-99.256;2023-05-14T09:47:39;77958.91;;;23.70;39.09
20955;BME280;10636;19.390;-99.256;2023-05-14T09:50:08;77958.13;;;23.67;39.48
20955;BME280;10636;19.390;-99.256;2023-05-14T09:52:36;77962.19;;;23.68;39.55
20955;BME280;10636;19.390;-99.256;2023-05-14T09:55:07;77962.19;;;23.68;38.98
20955;BME280;10636;19.390;-99.256;2023-05-14T09:57:36;77959.59;;;23.70;39.13
20955;BME280;10636;19.390;-99.256;2023-05-14T10:00:05;77963.59;;;23.69;39.72
20955;BME280;10636;19.390;-99.256;2023-05-14T10:03:00;77951.50;;;23.68;39.08
20955;BME280;10636;19.390;-99.256;2023-05-14T10:05:34;77958.22;;;23.69;39.77
20955;BME280;10636;19.390;-99.256;2023-05-14T10:08:21;77954.94;;;23.55;39.86
20955;BME280;10636;19.390;-99.256;2023-05-14T10:10:54;77974.91;;;23.68;39.60
20955;BME280;10636;19.390;-99.256;2023-05-14T10:13:54;77986.19;;;23.66;39.06
20955;BME280;10636;19.390;-99.256;2023-05-14T10:16:36;78000.88;;;23.65;39.73
20955;BME280;10636;19.390;-99.256;2023-05-14T10:19:32;77994.16;;;23.64;39.14
20955;BME280;10636;19.390;-99.256;2023-05-14T10:22:04;77999.50;;;23.64;39.76
20955;BME280;10636;19.390;-99.256;2023-05-14T10:24:37;77955.97;;;23.32;39.36
20955;BME280;10636;19.390;-99.256;2023-05-14T10:27:19;77998.81;;;23.64;39.21
20955;BME280;10636;19.390;-99.256;2023-05-14T10:29:51;78008.84;;;23.63;39.19
20955;BME280;10636;19.390;-99.256;2023-05-14T10:32:53;78012.09;;;23.62;40.05
20955;BME280;10636;19.390;-99.256;2023-05-14T10:36:00;78012.78;;;23.62;39.16
20955;BME280;10636;19.390;-99.256;2023-05-14T10:38:35;78022.09;;;23.61;39.24
20955;BME280;10636;19.390;-99.256;2023-05-14T10:41:11;78009.31;;;23.60;39.86
20955;BME280;10636;19.390;-99.256;2023-05-14T10:43:57;78003.28;;;23.59;39.78
20955;BME280;10636;19.390;-99.256;2023-05-14T10:46:26;78010.00;;;23.60;39.93
20955;BME280;10636;19.390;-99.256;2023-05-14T10:49:11;78014.00;;;23.59;39.19
20955;BME280;10636;19.390;-99.256;2023-05-14T10:51:53;78017.97;;;23.58;39.75
20955;BME280;10636;19.390;-99.256;2023-05-14T10:55:03;78009.84;;;23.56;39.50
20955;BME280;10636;19.390;-99.256;2023-05-14T10:57:34;78028.69;;;23.58;39.31
20955;BME280;10636;19.390;-99.256;2023-05-14T11:00:07;78016.66;;;23.59;40.01
20955;BME280;10636;19.390;-99.256;2023-05-14T11:02:41;78027.31;;;23.57;39.65
20955;BME280;10636;19.390;-99.256;2023-05-14T11:05:27;78033.34;;;23.58;39.76
20955;BME280;10636;19.390;-99.256;2023-05-14T11:07:57;78025.22;;;23.56;39.95
20955;BME280;10636;19.390;-99.256;2023-05-14T11:10:26;78033.94;;;23.56;39.29
20955;BME280;10636;19.390;-99.256;2023-05-14T11:12:56;78028.56;;;23.56;39.35
20955;BME280;10636;19.390;-99.256;2023-05-14T11:15:26;78023.84;;;23.55;39.55
20955;BME280;10636;19.390;-99.256;2023-05-14T11:17:55;78031.88;;;23.55;39.75
20955;BME280;10636;19.390;-99.256;2023-05-14T11:20:23;78027.13;;;23.53;40.04
20955;BME280;10636;19.390;-99.256;2023-05-14T11:22:52;78035.84;;;23.54;39.86
20955;BME280;10636;19.390;-99.256;2023-05-14T11:25:20;78039.81;;;23.53;39.48
20955;BME280;10636;19.390;-99.256;2023-05-14T11:27:51;78045.19;;;23.53;39.46
20955;BME280;10636;19.390;-99.256;2023-05-14T11:30:25;78045.88;;;23.53;40.09
20955;BME280;10636;19.390;-99.256;2023-05-14T11:32:54;78048.44;;;23.51;39.46
20955;BME280;10636;19.390;-99.256;2023-05-14T11:35:23;78056.31;;;23.47;39.34
20955;BME280;10636;19.390;-99.256;2023-05-14T11:37:52;78056.31;;;23.47;39.92
20955;BME280;10636;19.390;-99.256;2023-05-14T11:40:21;78061.56;;;23.45;40.24
20955;BME280;10636;19.390;-99.256;2023-05-14T11:42:50;78053.88;;;23.37;39.86
20955;BME280;10636;19.390;-99.256;2023-05-14T11:45:26;78065.63;;;23.46;40.00
20955;BME280;10636;19.390;-99.256;2023-05-14T11:47:55;78057.75;;;23.34;40.10
20955;BME280;10636;19.390;-99.256;2023-05-14T11:50:23;78064.22;;;23.45;39.95
20955;BME280;10636;19.390;-99.256;2023-05-14T11:52:55;78069.50;;;23.43;39.73
20955;BME280;10636;19.390;-99.256;2023-05-14T11:55:24;78067.53;;;23.43;40.29
20955;BME280;10636;19.390;-99.256;2023-05-14T11:57:53;78057.44;;;23.42;40.16
20955;BME280;10636;19.390;-99.256;2023-05-14T12:00:21;78064.06;;;23.41;40.38
20955;BME280;10636;19.390;-99.256;2023-05-14T12:02:52;78064.06;;;23.41;40.38
20955;BME280;10636;19.390;-99.256;2023-05-14T12:05:21;78070.63;;;23.38;40.13
20955;BME280;10636;19.390;-99.256;2023-05-14T12:07:49;78073.19;;;23.36;40.50
20955;BME280;10636;19.390;-99.256;2023-05-14T12:10:42;78073.19;;;23.36;40.11
20955;BME280;10636;19.390;-99.256;2023-05-14T12:13:14;78083.91;;;23.36;39.91
20955;BME280;10636;19.390;-99.256;2023-05-14T12:15:47;78078.28;;;23.30;39.95
20955;BME280;10636;19.390;-99.256;2023-05-14T12:18:32;78087.88;;;23.35;40.04
20955;BME280;10636;19.390;-99.256;2023-05-14T12:21:04;78090.56;;;23.35;39.72
20955;BME280;10636;19.390;-99.256;2023-05-14T12:24:01;78078.53;;;23.36;39.54
20955;BME280;10636;19.390;-99.256;2023-05-14T12:26:46;78085.19;;;23.35;39.89
20955;BME280;10636;19.390;-99.256;2023-05-14T12:29:16;78097.19;;;23.34;40.32
20955;BME280;10636;19.390;-99.256;2023-05-14T12:31:47;78092.53;;;23.34;39.79
20955;BME280;10636;19.390;-99.256;2023-05-14T12:34:17;78103.94;;;23.35;40.05
20955;BME280;10636;19.390;-99.256;2023-05-14T12:36:46;78109.91;;;23.33;39.70
20955;BME280;10636;19.390;-99.256;2023-05-14T12:39:16;78104.53;;;23.33;40.51
20955;BME280;10636;19.390;-99.256;2023-05-14T12:41:44;78078.66;;;23.08;39.69
20955;BME280;10636;19.390;-99.256;2023-05-14T12:44:13;78115.94;;;23.34;40.18
20955;BME280;10636;19.390;-99.256;2023-05-14T12:46:41;78121.28;;;23.34;39.60
20955;BME280;10636;19.390;-99.256;2023-05-14T12:49:12;78130.00;;;23.34;40.10
20955;BME280;10636;19.390;-99.256;2023-05-14T12:51:45;78125.94;;;23.33;40.47
20955;BME280;10636;19.390;-99.256;2023-05-14T12:54:13;78130.69;;;23.35;40.33
20955;BME280;10636;19.390;-99.256;2023-05-14T12:56:54;78129.31;;;23.34;39.73
20955;BME280;10636;19.390;-99.256;2023-05-14T12:59:23;78138.03;;;23.34;39.59
20955;BME280;10636;19.390;-99.256;2023-05-14T13:01:51;78138.72;;;23.35;39.62